createdAt,value
2017-09-08T00:02:22.827Z,4.63
2017-09-08T00:04:50.483Z,4.77
2017-09-08T00:07:18.150Z,4.73
2017-09-08T00:09:45.920Z,4.90
2017-09-08T00:12:13.612Z,4.90
2017-09-08T00:14:41.320Z,4.80
2017-09-08T00:17:08.984Z,5.63
2017-09-08T00:19:36.691Z,5.20
2017-09-08T00:22:05.276Z,4.93
2017-09-08T00:24:33.003Z,4.60
2017-09-08T00:27:00.672Z,4.30
2017-09-08T00:29:28.380Z,5.00
2017-09-08T00:31:56.843Z,5.00
2017-09-08T00:34:25.323Z,4.43
2017-09-08T00:36:53.753Z,5.70
2017-09-08T00:39:21.464Z,4.80
2017-09-08T00:41:49.947Z,4.30
2017-09-08T00:44:18.427Z,4.97
2017-09-08T00:46:46.867Z,5.83
2017-09-08T00:49:14.600Z,5.17
2017-09-08T00:51:42.344Z,5.73
2017-09-08T00:54:10.123Z,5.00
2017-09-08T00:56:37.809Z,4.90
2017-09-08T00:59:05.528Z,4.73
2017-09-08T01:01:33.188Z,4.77
2017-09-08T01:04:00.913Z,5.30
2017-09-08T01:06:28.612Z,4.60
2017-09-08T01:08:56.356Z,4.60
2017-09-08T01:11:24.879Z,4.27
2017-09-08T01:13:52.560Z,5.80
2017-09-08T01:16:21.568Z,5.43
2017-09-08T01:18:50.000Z,6.53
2017-09-08T01:21:17.699Z,5.33
2017-09-08T01:23:45.359Z,5.07
2017-09-08T01:26:13.071Z,4.90
2017-09-08T01:28:40.736Z,5.37
2017-09-08T01:31:08.440Z,5.03
2017-09-08T01:33:36.095Z,5.40
2017-09-08T01:36:03.795Z,4.30
2017-09-08T01:38:31.459Z,5.43
2017-09-08T01:40:59.167Z,5.53
2017-09-08T01:43:26.832Z,4.93
2017-09-08T01:45:54.536Z,5.57
2017-09-08T01:48:22.203Z,6.30
2017-09-08T01:50:49.907Z,5.30
2017-09-08T01:53:17.608Z,6.17
2017-09-08T01:55:45.301Z,5.50
2017-09-08T01:58:12.965Z,6.10
2017-09-08T02:00:40.728Z,6.17
2017-09-08T02:03:08.383Z,5.10
2017-09-08T02:05:36.039Z,5.70
2017-09-08T02:08:03.752Z,5.70
2017-09-08T02:10:32.175Z,6.30
2017-09-08T02:12:59.880Z,4.70
2017-09-08T02:15:28.312Z,6.00
2017-09-08T02:17:56.018Z,5.70
2017-09-08T02:20:24.438Z,6.80
2017-09-08T02:22:52.149Z,5.20
2017-09-08T02:25:19.863Z,5.30
2017-09-08T02:27:47.568Z,6.03
2017-09-08T02:30:15.228Z,5.73
2017-09-08T02:32:42.944Z,5.40
2017-09-08T02:35:10.617Z,6.27
2017-09-08T02:37:38.320Z,5.50
2017-09-08T02:40:06.748Z,5.50
2017-09-08T02:42:35.203Z,5.53
2017-09-08T02:45:03.716Z,5.37
2017-09-08T02:47:31.415Z,5.53
2017-09-08T02:49:59.836Z,5.80
2017-09-08T02:52:27.540Z,5.83
2017-09-08T02:54:55.200Z,5.20
2017-09-08T02:57:22.863Z,5.00
2017-09-08T02:59:51.339Z,5.20
2017-09-08T03:02:19.772Z,5.70
2017-09-08T03:04:47.472Z,5.40
2017-09-08T03:07:15.136Z,5.20
2017-09-08T03:09:42.843Z,5.10
2017-09-08T03:12:10.507Z,4.73
2017-09-08T03:14:38.219Z,6.50
2017-09-08T03:17:06.651Z,5.53
2017-09-08T03:19:34.358Z,5.00
2017-09-08T03:22:02.796Z,4.50
2017-09-08T03:24:30.515Z,5.73
2017-09-08T03:26:58.951Z,5.60
2017-09-08T03:29:26.696Z,5.27
2017-09-08T03:31:54.355Z,4.97
2017-09-08T03:34:22.056Z,4.47
2017-09-08T03:36:50.487Z,5.80
2017-09-08T03:39:18.214Z,6.37
2017-09-08T03:41:46.642Z,5.50
2017-09-08T03:44:14.395Z,6.50
2017-09-08T03:46:42.062Z,4.97
2017-09-08T03:49:09.763Z,5.57
2017-09-08T03:51:38.188Z,5.30
2017-09-08T03:54:05.896Z,4.90
2017-09-08T03:56:34.327Z,5.30
2017-09-08T03:59:01.988Z,5.00
2017-09-08T04:01:29.691Z,6.20
2017-09-08T04:03:58.120Z,5.83
2017-09-08T04:06:25.828Z,6.17
2017-09-08T04:08:54.262Z,5.00
2017-09-08T04:11:21.971Z,5.67
2017-09-08T04:13:50.436Z,5.63
2017-09-08T04:16:18.967Z,5.60
2017-09-08T04:18:46.632Z,6.63
2017-09-08T04:21:14.336Z,5.07
2017-09-08T04:23:42.764Z,5.10
2017-09-08T04:26:10.474Z,5.00
2017-09-08T04:28:38.896Z,5.40
2017-09-08T04:31:06.601Z,5.37
2017-09-08T04:33:34.264Z,5.47
2017-09-08T04:36:01.989Z,5.23
2017-09-08T04:38:29.655Z,5.70
2017-09-08T04:40:57.359Z,6.13
2017-09-08T04:43:25.823Z,4.83
2017-09-08T04:45:53.531Z,5.70
2017-09-08T04:48:21.204Z,5.13
2017-09-08T04:50:48.915Z,4.80
2017-09-08T04:53:17.344Z,5.00
2017-09-08T04:55:45.008Z,4.80
2017-09-08T04:58:12.707Z,5.87
2017-09-08T05:00:41.139Z,5.23
2017-09-08T05:03:08.851Z,5.47
2017-09-08T05:05:37.324Z,5.60
2017-09-08T05:08:05.837Z,5.60
2017-09-08T05:10:33.564Z,5.20
2017-09-08T05:13:02.074Z,4.60
2017-09-08T05:15:29.744Z,4.40
2017-09-08T05:17:57.449Z,5.47
2017-09-08T05:20:25.113Z,5.23
2017-09-08T05:22:52.820Z,4.83
2017-09-08T05:25:20.481Z,4.60
2017-09-08T05:27:48.184Z,4.50
2017-09-08T05:30:15.851Z,4.33
2017-09-08T05:32:43.560Z,4.03
2017-09-08T05:35:11.221Z,4.90
2017-09-08T05:37:38.926Z,5.03
2017-09-08T05:40:06.601Z,5.47
2017-09-08T05:42:35.075Z,5.20
2017-09-08T05:45:02.741Z,4.60
2017-09-08T05:47:31.223Z,4.80
2017-09-08T05:49:59.655Z,4.40
2017-09-08T05:52:27.364Z,4.90
2017-09-08T05:54:55.797Z,4.83
2017-09-08T05:57:23.462Z,4.40
2017-09-08T05:59:51.171Z,5.00
2017-09-08T06:02:19.599Z,4.87
2017-09-08T06:04:47.307Z,5.87
2017-09-08T06:07:15.728Z,3.80
2017-09-08T06:09:43.451Z,3.90
2017-09-08T06:12:11.124Z,4.70
2017-09-08T06:14:38.827Z,4.57
2017-09-08T06:17:06.540Z,4.57
2017-09-08T06:19:34.256Z,4.67
2017-09-08T06:22:01.927Z,4.50
2017-09-08T06:24:30.412Z,5.10
2017-09-08T06:26:58.859Z,3.97
2017-09-08T06:29:26.559Z,3.77
2017-09-08T06:31:54.228Z,4.40
2017-09-08T06:34:21.943Z,3.60
2017-09-08T06:36:49.609Z,4.50
2017-09-08T06:39:17.336Z,4.30
2017-09-08T06:41:44.999Z,5.80
2017-09-08T06:44:12.719Z,4.60
2017-09-08T06:46:40.392Z,4.23
2017-09-08T06:49:08.161Z,4.20
2017-09-08T06:51:35.836Z,3.90
2017-09-08T06:56:37.556Z,3.53
2017-09-08T06:59:05.994Z,3.83
2017-09-08T07:01:33.710Z,4.40
2017-09-08T07:04:01.373Z,4.20
2017-09-08T07:06:29.115Z,4.10
2017-09-08T07:08:57.541Z,3.97
2017-09-08T07:11:25.252Z,3.77
2017-09-08T07:13:53.712Z,4.23
2017-09-08T07:16:21.424Z,3.97
2017-09-08T07:18:49.079Z,4.07
2017-09-08T07:21:16.781Z,4.70
2017-09-08T07:23:44.460Z,4.17
2017-09-08T07:26:12.164Z,4.00
2017-09-08T07:28:39.820Z,3.97
2017-09-08T07:31:07.536Z,3.60
2017-09-08T07:33:35.191Z,3.83
2017-09-08T07:36:02.892Z,4.37
2017-09-08T07:38:30.552Z,4.53
2017-09-08T07:40:58.267Z,3.93
2017-09-08T07:43:25.937Z,4.30
2017-09-08T07:45:53.643Z,3.93
2017-09-08T07:48:21.354Z,3.90
2017-09-08T07:50:49.061Z,3.70
2017-09-08T07:53:16.735Z,3.90
2017-09-08T07:55:44.391Z,3.90
2017-09-08T07:58:12.094Z,4.03
2017-09-08T08:00:40.528Z,3.90
2017-09-08T08:03:08.282Z,3.50
2017-09-08T08:05:35.949Z,4.27
2017-09-08T08:08:03.659Z,3.50
2017-09-08T08:10:32.084Z,3.23
2017-09-08T08:12:59.792Z,3.67
2017-09-08T08:15:27.448Z,3.40
2017-09-08T08:17:55.152Z,3.63
2017-09-08T08:20:22.818Z,3.40
2017-09-08T08:22:50.524Z,4.10
2017-09-08T08:25:18.225Z,3.77
2017-09-08T08:27:45.935Z,3.50
2017-09-08T08:30:13.600Z,3.50
2017-09-08T08:32:41.300Z,4.03
2017-09-08T08:35:08.960Z,4.07
2017-09-08T08:37:36.667Z,3.37
2017-09-08T08:40:04.316Z,4.33
2017-09-08T08:42:32.057Z,3.63
2017-09-08T08:44:59.748Z,3.63
2017-09-08T08:47:27.460Z,4.60
2017-09-08T08:49:55.128Z,4.17
2017-09-08T08:52:22.784Z,4.30
2017-09-08T08:54:50.488Z,4.40
2017-09-08T08:57:18.163Z,3.83
2017-09-08T08:59:45.868Z,4.70
2017-09-08T09:02:13.554Z,3.43
2017-09-08T09:04:41.251Z,4.40
2017-09-08T09:07:09.681Z,3.90
2017-09-08T09:09:37.383Z,3.77
2017-09-08T09:12:05.041Z,3.80
2017-09-08T09:14:32.751Z,3.83
2017-09-08T09:17:00.413Z,3.60
2017-09-08T09:19:28.121Z,4.30
2017-09-08T09:21:55.782Z,4.37
2017-09-08T09:24:23.488Z,3.57
2017-09-08T09:26:51.156Z,3.70
2017-09-08T09:29:18.860Z,3.50
2017-09-08T09:31:46.521Z,4.07
2017-09-08T09:34:15.010Z,3.77
2017-09-08T09:36:43.441Z,3.63
2017-09-08T09:39:11.144Z,5.20
2017-09-08T09:41:38.805Z,4.60
2017-09-08T09:44:06.523Z,4.27
2017-09-08T09:46:34.184Z,3.53
2017-09-08T09:49:01.903Z,4.30
2017-09-08T09:51:29.560Z,4.07
2017-09-08T09:53:58.020Z,4.87
2017-09-08T09:56:26.494Z,4.40
2017-09-08T09:58:54.150Z,3.80
2017-09-08T10:01:21.855Z,4.40
2017-09-08T10:03:49.519Z,3.50
2017-09-08T10:06:17.236Z,4.37
2017-09-08T10:08:44.891Z,3.90
2017-09-08T10:11:12.632Z,4.57
2017-09-08T10:13:40.293Z,4.10
2017-09-08T10:16:07.996Z,3.83
2017-09-08T10:18:36.424Z,3.90
2017-09-08T10:21:04.163Z,3.93
2017-09-08T10:23:31.832Z,4.67
2017-09-08T10:25:59.545Z,5.00
2017-09-08T10:28:27.974Z,4.80
2017-09-08T10:30:55.667Z,4.30
2017-09-08T10:33:23.340Z,3.80
2017-09-08T10:35:51.820Z,4.10
2017-09-08T10:38:20.248Z,3.40
2017-09-08T10:40:47.940Z,4.10
2017-09-08T10:43:15.601Z,4.20
2017-09-08T10:45:43.304Z,4.20
2017-09-08T10:48:10.973Z,4.13
2017-09-08T10:50:38.643Z,4.60
2017-09-08T10:53:06.335Z,4.27
2017-09-08T10:55:34.000Z,3.97
2017-09-08T10:58:01.720Z,3.87
2017-09-08T11:00:29.385Z,4.37
2017-09-08T11:02:57.087Z,4.90
2017-09-08T11:05:25.521Z,4.03
2017-09-08T11:07:53.226Z,4.57
2017-09-08T11:10:20.893Z,3.90
2017-09-08T11:12:49.364Z,3.77
2017-09-08T11:15:17.788Z,3.87
2017-09-08T11:17:45.480Z,3.90
2017-09-08T11:20:13.136Z,3.97
2017-09-08T11:22:40.834Z,3.77
2017-09-08T11:25:09.256Z,4.47
2017-09-08T11:27:36.964Z,4.50
2017-09-08T11:30:04.620Z,4.50
2017-09-08T11:32:38.684Z,4.20
2017-09-08T11:35:11.938Z,4.97
2017-09-08T11:37:39.635Z,8.93
2017-09-08T11:40:08.095Z,4.00
2017-09-08T11:42:35.796Z,3.57
2017-09-08T11:45:03.481Z,4.10
2017-09-08T11:47:31.952Z,4.43
2017-09-08T11:50:00.383Z,4.03
2017-09-08T11:52:28.039Z,3.70
2017-09-08T11:54:55.740Z,3.67
2017-09-08T11:57:23.403Z,4.67
2017-09-08T11:59:51.888Z,4.10
2017-09-08T12:02:20.319Z,5.63
2017-09-08T12:04:48.009Z,3.87
2017-09-08T12:07:15.676Z,3.90
2017-09-08T12:09:43.375Z,3.90
2017-09-08T12:12:11.033Z,4.13
2017-09-08T12:14:38.740Z,4.33
2017-09-08T12:17:06.400Z,5.40
2017-09-08T12:19:34.100Z,4.20
2017-09-08T12:22:02.528Z,3.43
2017-09-08T12:24:30.230Z,3.70
2017-09-08T12:26:58.652Z,4.23
2017-09-08T12:29:26.361Z,6.00
2017-09-08T12:31:54.783Z,3.07
2017-09-08T12:34:22.488Z,4.70
2017-09-08T12:36:50.138Z,3.47
2017-09-08T12:39:17.833Z,3.73
2017-09-08T12:41:46.262Z,3.47
2017-09-08T12:44:13.968Z,3.50
2017-09-08T12:46:42.399Z,3.47
2017-09-08T12:49:10.105Z,4.20
2017-09-08T12:51:38.527Z,3.43
2017-09-08T12:54:06.248Z,4.10
2017-09-08T12:56:34.739Z,4.03
2017-09-08T12:59:02.400Z,3.40
2017-09-08T13:01:30.121Z,3.20
2017-09-08T13:03:57.788Z,4.50
2017-09-08T13:06:26.269Z,4.17
2017-09-08T13:08:53.929Z,4.80
2017-09-08T13:11:22.404Z,4.07
2017-09-08T13:13:50.836Z,4.00
2017-09-08T13:16:18.536Z,3.90
2017-09-08T13:18:46.244Z,4.00
2017-09-08T13:21:13.984Z,3.83
2017-09-08T13:23:41.646Z,3.80
2017-09-08T13:26:09.346Z,4.00
2017-09-08T13:28:37.012Z,3.93
2017-09-08T13:31:04.720Z,3.80
2017-09-08T13:33:32.376Z,3.37
2017-09-08T13:36:00.839Z,3.80
2017-09-08T13:38:28.548Z,3.43
2017-09-08T13:40:56.273Z,3.33
2017-09-08T13:43:23.999Z,3.23
2017-09-08T13:45:51.692Z,3.50
2017-09-08T13:48:20.129Z,3.80
2017-09-08T13:50:47.841Z,3.20
2017-09-08T13:53:15.549Z,2.80
2017-09-08T13:55:43.279Z,4.00
2017-09-08T13:58:10.948Z,3.90
2017-09-08T14:00:38.634Z,3.47
2017-09-08T14:03:06.352Z,2.90
2017-09-08T14:05:34.065Z,3.47
2017-09-08T14:08:01.772Z,3.07
2017-09-08T14:10:29.444Z,2.77
2017-09-08T14:12:57.180Z,3.03
2017-09-08T14:15:24.840Z,3.03
2017-09-08T14:17:52.591Z,2.97
2017-09-08T14:20:20.297Z,2.70
2017-09-08T14:22:48.009Z,2.67
2017-09-08T14:25:15.672Z,2.90
2017-09-08T14:27:44.161Z,2.33
2017-09-08T14:30:11.820Z,2.43
2017-09-08T14:32:39.521Z,2.93
2017-09-08T14:35:07.188Z,2.50
2017-09-08T14:37:34.892Z,2.57
2017-09-08T14:40:02.555Z,2.57
2017-09-08T14:42:30.305Z,2.23
2017-09-08T14:44:57.964Z,2.50
2017-09-08T14:47:26.448Z,3.10
2017-09-08T14:49:54.872Z,2.73
2017-09-08T14:52:22.533Z,2.13
2017-09-08T14:54:50.236Z,2.40
2017-09-08T14:57:17.908Z,3.13
2017-09-08T14:59:46.377Z,2.70
2017-09-08T15:02:14.053Z,2.50
2017-09-08T15:04:41.781Z,2.53
2017-09-08T15:07:09.440Z,2.33
2017-09-08T15:09:37.150Z,2.10
2017-09-08T15:12:04.818Z,2.23
2017-09-08T15:14:32.548Z,2.50
2017-09-08T15:17:00.968Z,2.83
2017-09-08T15:19:28.677Z,2.80
2017-09-08T15:21:56.342Z,2.40
2017-09-08T15:24:24.040Z,2.90
2017-09-08T15:26:51.711Z,2.40
2017-09-08T15:29:19.416Z,2.00
2017-09-08T15:31:47.077Z,1.73
2017-09-08T15:34:14.771Z,1.80
2017-09-08T15:36:42.427Z,2.73
2017-09-08T15:39:10.136Z,2.10
2017-09-08T15:41:37.798Z,2.00
2017-09-08T15:44:05.496Z,2.40
2017-09-08T15:46:33.170Z,1.90
2017-09-08T15:49:00.873Z,2.23
2017-09-08T15:51:28.533Z,2.37
2017-09-08T15:53:56.199Z,2.27
2017-09-08T15:56:24.670Z,2.33
2017-09-08T15:58:52.340Z,2.47
2017-09-08T16:01:20.811Z,2.50
2017-09-08T16:03:48.480Z,2.40
2017-09-08T16:06:16.199Z,2.47
2017-09-08T16:08:43.862Z,2.77
2017-09-08T16:11:11.564Z,2.47
2017-09-08T16:13:39.992Z,2.30
2017-09-08T16:16:13.048Z,2.10
2017-09-08T16:18:40.798Z,2.23
2017-09-08T16:21:09.273Z,2.30
2017-09-08T16:23:37.713Z,1.97
2017-09-08T16:26:05.455Z,2.10
2017-09-08T16:28:33.112Z,2.00
2017-09-08T16:31:00.813Z,2.30
2017-09-08T16:33:28.559Z,2.30
2017-09-08T16:35:56.262Z,2.10
2017-09-08T16:38:24.690Z,2.33
2017-09-08T16:40:52.396Z,2.03
2017-09-08T16:43:20.931Z,2.57
2017-09-08T16:45:48.644Z,2.00
2017-09-08T16:48:16.324Z,2.13
2017-09-08T16:50:43.976Z,2.40
2017-09-08T16:53:11.713Z,2.87
2017-09-08T16:55:40.146Z,3.00
2017-09-08T16:58:07.851Z,2.57
2017-09-08T17:00:35.520Z,2.90
2017-09-08T17:03:03.236Z,2.13
2017-09-08T17:05:30.899Z,2.40
2017-09-08T17:07:58.644Z,2.30
2017-09-08T17:10:26.300Z,2.30
2017-09-08T17:12:54.003Z,2.23
2017-09-08T17:15:22.452Z,2.80
2017-09-08T17:17:50.162Z,2.80
2017-09-08T17:20:17.861Z,2.43
2017-09-08T17:22:45.568Z,3.70
2017-09-08T17:25:13.276Z,3.17
2017-09-08T17:27:41.024Z,2.70
2017-09-08T17:30:08.712Z,2.47
2017-09-08T17:32:36.425Z,2.53
2017-09-08T17:35:04.085Z,2.20
2017-09-08T17:37:31.801Z,2.80
2017-09-08T17:39:59.468Z,2.07
2017-09-08T17:42:27.956Z,2.33
2017-09-08T17:44:56.390Z,2.40
2017-09-08T17:47:24.100Z,2.40
2017-09-08T17:49:52.526Z,2.37
2017-09-08T17:52:20.187Z,2.50
2017-09-08T17:54:47.892Z,2.97
2017-09-08T17:57:15.556Z,2.67
2017-09-08T17:59:44.016Z,2.70
2017-09-08T18:02:11.715Z,2.50
2017-09-08T18:04:39.423Z,2.60
2017-09-08T18:07:07.082Z,2.60
2017-09-08T18:09:34.784Z,2.90
2017-09-08T18:12:03.225Z,2.87
2017-09-08T18:14:30.927Z,3.03
2017-09-08T18:16:58.587Z,2.50
2017-09-08T18:19:26.291Z,3.10
2017-09-08T18:21:54.711Z,2.80
2017-09-08T18:24:23.219Z,2.20
2017-09-08T18:26:50.875Z,2.90
2017-09-08T18:29:18.582Z,2.60
2017-09-08T18:31:46.236Z,2.73
2017-09-08T18:34:14.002Z,2.70
2017-09-08T18:36:41.665Z,2.60
2017-09-08T18:39:09.373Z,2.97
2017-09-08T18:41:37.040Z,3.20
2017-09-08T18:44:04.771Z,2.70
2017-09-08T18:46:33.249Z,3.17
2017-09-08T18:49:01.732Z,3.03
2017-09-08T18:51:29.447Z,3.77
2017-09-08T18:53:57.096Z,2.73
2017-09-08T18:56:24.800Z,3.37
2017-09-08T18:58:53.224Z,3.40
2017-09-08T19:01:20.941Z,3.40
2017-09-08T19:03:49.384Z,3.97
2017-09-08T19:06:17.084Z,3.60
2017-09-08T19:08:45.520Z,3.60
2017-09-08T19:11:13.224Z,3.40
2017-09-08T19:13:41.652Z,3.67
2017-09-08T19:16:09.364Z,3.07
2017-09-08T19:18:37.780Z,4.20
2017-09-08T19:21:05.483Z,3.53
2017-09-08T19:23:33.911Z,3.90
2017-09-08T19:26:02.675Z,3.63
2017-09-08T19:28:32.047Z,4.30
2017-09-08T19:31:00.529Z,3.80
2017-09-08T19:33:28.192Z,4.10
2017-09-08T19:35:57.718Z,3.60
2017-09-08T19:38:26.101Z,3.67
2017-09-08T19:40:53.868Z,2.87
2017-09-08T19:43:22.331Z,4.63
2017-09-08T19:45:49.993Z,3.87
2017-09-08T19:48:17.690Z,3.80
2017-09-08T19:50:45.351Z,3.17
2017-09-08T19:53:13.756Z,4.27
2017-09-08T19:55:42.188Z,4.50
2017-09-08T20:00:42.716Z,3.97
2017-09-08T20:03:10.452Z,3.30
2017-09-08T20:05:38.915Z,3.10
2017-09-08T20:08:07.398Z,3.00
2017-09-08T20:10:35.839Z,3.70
2017-09-08T20:13:03.553Z,3.90
2017-09-08T20:15:31.236Z,3.53
2017-09-08T20:17:58.949Z,3.00
2017-09-08T20:20:27.381Z,4.00
2017-09-08T20:22:55.089Z,3.27
2017-09-08T20:25:23.525Z,3.20
2017-09-08T20:27:51.229Z,3.00
2017-09-08T20:30:19.655Z,3.50
2017-09-08T20:32:47.361Z,3.30
2017-09-08T20:35:15.798Z,3.20
2017-09-08T20:37:43.503Z,3.70
2017-09-08T20:40:11.959Z,3.00
2017-09-08T20:42:39.660Z,3.73
2017-09-08T20:45:07.317Z,3.93
2017-09-08T20:47:35.068Z,3.20
2017-09-08T20:50:02.741Z,3.40
2017-09-08T20:52:30.399Z,3.23
2017-09-08T20:54:58.115Z,3.00
2017-09-08T20:57:25.800Z,3.60
2017-09-08T20:59:54.308Z,3.50
2017-09-08T21:02:22.002Z,3.83
2017-09-08T21:04:49.717Z,3.20
2017-09-08T21:07:17.492Z,3.33
2017-09-08T21:09:45.264Z,3.70
2017-09-08T21:12:13.055Z,3.17
2017-09-08T21:14:40.995Z,3.30
2017-09-08T21:17:08.668Z,4.53
2017-09-08T21:19:36.380Z,3.47
2017-09-08T21:22:04.815Z,3.73
2017-09-08T21:24:32.522Z,3.10
2017-09-08T21:27:01.177Z,3.37
2017-09-08T21:29:28.882Z,3.60
2017-09-08T21:31:56.548Z,3.30
2017-09-08T21:34:24.258Z,3.20
2017-09-08T21:36:51.927Z,4.07
2017-09-08T21:39:20.413Z,3.73
2017-09-08T21:41:48.836Z,3.40
2017-09-08T21:44:16.547Z,3.10
2017-09-08T21:46:44.975Z,3.27
2017-09-08T21:49:12.636Z,3.10
2017-09-08T21:51:40.345Z,3.40
2017-09-08T21:54:08.796Z,3.10
2017-09-08T21:56:36.498Z,3.10
2017-09-08T21:59:04.152Z,2.90
2017-09-08T22:01:31.859Z,3.40
2017-09-08T22:03:59.516Z,3.20
2017-09-08T22:06:27.220Z,3.30
2017-09-08T22:08:55.643Z,3.20
2017-09-08T22:11:23.349Z,2.53
2017-09-08T22:13:51.019Z,3.50
2017-09-08T22:16:19.483Z,2.43
2017-09-08T22:18:47.134Z,2.80
2017-09-08T22:21:14.843Z,3.33
2017-09-08T22:23:42.531Z,2.47
2017-09-08T22:26:10.235Z,3.20
2017-09-08T22:28:38.664Z,3.00
2017-09-08T22:31:06.361Z,2.97
2017-09-08T22:33:34.017Z,3.40
2017-09-08T22:36:01.724Z,3.60
2017-09-08T22:38:29.387Z,2.40
2017-09-08T22:40:57.100Z,2.50
2017-09-08T22:43:24.756Z,2.90
2017-09-08T22:45:52.481Z,2.90
2017-09-08T22:48:20.144Z,2.53
2017-09-08T22:50:47.845Z,2.57
2017-09-08T22:53:16.311Z,2.30
2017-09-08T22:55:43.971Z,2.23
2017-09-08T22:58:11.678Z,2.30
2017-09-08T23:00:39.351Z,2.53
2017-09-08T23:03:07.052Z,2.10
2017-09-08T23:05:34.860Z,2.90
2017-09-08T23:08:02.562Z,2.57
2017-09-08T23:10:30.228Z,2.40
2017-09-08T23:12:57.919Z,2.63
2017-09-08T23:15:25.576Z,1.90
2017-09-08T23:17:55.218Z,2.77
2017-09-08T23:20:24.516Z,2.57
2017-09-08T23:22:53.379Z,2.33
2017-09-08T23:25:22.895Z,3.17
2017-09-08T23:27:51.632Z,2.27
2017-09-08T23:30:20.515Z,1.83
2017-09-08T23:32:48.215Z,2.00
2017-09-08T23:35:15.876Z,2.30
2017-09-08T23:37:43.584Z,2.40
2017-09-08T23:40:11.244Z,2.40
2017-09-08T23:42:38.944Z,2.00
2017-09-08T23:45:07.363Z,2.77
2017-09-08T23:47:35.072Z,1.90
2017-09-08T23:50:03.520Z,2.67
2017-09-08T23:52:31.176Z,2.30
2017-09-08T23:54:58.875Z,2.43
2017-09-08T23:57:27.315Z,2.10
2017-09-08T23:59:55.016Z,2.40
